createdAt,value
2018-12-08T00:00:18.539Z,0.1
2018-12-08T00:02:19.221Z,0.1
2018-12-08T00:04:18.937Z,0.1
2018-12-08T00:06:18.537Z,0.1
2018-12-08T00:08:19.284Z,0.1
2018-12-08T00:10:18.534Z,0.1
2018-12-08T00:12:19.294Z,0
2018-12-08T00:14:19.044Z,0.2
2018-12-08T00:16:19.314Z,0.1
2018-12-08T00:18:19.134Z,0
2018-12-08T00:20:18.971Z,0.2
2018-12-08T00:22:18.501Z,0.7
2018-12-08T00:24:19.259Z,0.1
2018-12-08T00:26:18.718Z,0.2
2018-12-08T00:28:19.524Z,0.2
2018-12-08T00:30:19.309Z,0.2
2018-12-08T00:32:19.069Z,0.5
2018-12-08T00:34:18.838Z,0.2
2018-12-08T00:36:19.239Z,0.2
2018-12-08T00:38:19.036Z,0.3
2018-12-08T00:40:19.293Z,0.9
2018-12-08T00:42:19.109Z,0.6
2018-12-08T00:44:18.876Z,0.5
2018-12-08T00:46:18.715Z,0.4
2018-12-08T00:48:19.492Z,0.4
2018-12-08T00:50:19.246Z,0.4
2018-12-08T00:52:19.042Z,0.5
2018-12-08T00:54:18.817Z,0.5
2018-12-08T00:56:19.327Z,0.4
2018-12-08T00:58:19.085Z,0.4
2018-12-08T01:00:18.868Z,0.5
2018-12-08T01:02:18.638Z,0.4
2018-12-08T01:04:19.452Z,0.6
2018-12-08T01:06:18.968Z,0.8
2018-12-08T01:08:18.762Z,0.7
2018-12-08T01:10:19.052Z,0.4
2018-12-08T01:12:18.820Z,1.2
2018-12-08T01:14:18.577Z,0.9
2018-12-08T01:16:18.701Z,0.5
2018-12-08T01:18:18.544Z,1.1
2018-12-08T01:20:19.379Z,0.8
2018-12-08T01:22:19.136Z,1
2018-12-08T01:24:18.929Z,1.4
2018-12-08T01:26:19.059Z,0.9
2018-12-08T01:28:18.854Z,0.7
2018-12-08T01:30:18.704Z,0.6
2018-12-08T01:32:19.467Z,0.6
2018-12-08T01:34:19.227Z,1.4
2018-12-08T01:36:18.801Z,1.2
2018-12-08T01:38:18.547Z,0.7
2018-12-08T01:40:18.822Z,0.8
2018-12-08T01:42:18.986Z,1.2
2018-12-08T01:44:18.754Z,0.9
2018-12-08T01:46:19.144Z,0.7
2018-12-08T01:48:18.895Z,0.7
2018-12-08T01:50:18.711Z,1.2
2018-12-08T01:52:19.331Z,0.6
2018-12-08T01:54:19.098Z,1
2018-12-08T01:56:18.973Z,2.1
2018-12-08T01:58:18.736Z,1.6
2018-12-08T02:00:18.519Z,1.2
2018-12-08T02:02:19.307Z,1.2
2018-12-08T02:04:19.090Z,0.6
2018-12-08T02:06:18.749Z,0.8
2018-12-08T02:08:18.516Z,1.5
2018-12-08T02:10:18.798Z,1.5
2018-12-08T02:12:18.585Z,0.9
2018-12-08T02:14:19.361Z,1.8
2018-12-08T02:16:19.447Z,0.9
2018-12-08T02:18:19.278Z,0.9
2018-12-08T02:20:19.055Z,1
2018-12-08T02:22:18.690Z,0.9
2018-12-08T02:24:19.484Z,1.3
2018-12-08T02:26:20.711Z,1.2
2018-12-08T02:28:19.486Z,1.1
2018-12-08T02:30:19.339Z,1
2018-12-08T02:32:19.137Z,1.4
2018-12-08T02:34:18.940Z,1
2018-12-08T02:36:18.511Z,0.6
2018-12-08T02:38:19.308Z,1.2
2018-12-08T02:40:18.599Z,1.2
2018-12-08T02:42:19.577Z,1.7
2018-12-08T02:44:19.376Z,1.5
2018-12-08T02:46:19.487Z,1.3
2018-12-08T02:48:19.255Z,1
2018-12-08T02:50:19.191Z,0.9
2018-12-08T02:52:18.945Z,1
2018-12-08T02:54:18.722Z,0.7
2018-12-08T02:56:19.480Z,1.2
2018-12-08T02:58:19.262Z,0.8
2018-12-08T03:00:19.074Z,1.3
2018-12-08T03:02:18.606Z,1.6
2018-12-08T03:04:19.424Z,0.7
2018-12-08T03:06:19.464Z,0.8
2018-12-08T03:08:19.246Z,1
2018-12-08T03:10:19.488Z,0.7
2018-12-08T03:12:19.208Z,1
2018-12-08T03:14:19.007Z,1.2
2018-12-08T03:16:19.078Z,1.1
2018-12-08T03:18:18.944Z,0.5
2018-12-08T03:20:18.715Z,0.8
2018-12-08T03:22:19.455Z,0.7
2018-12-08T03:24:19.249Z,1.1
2018-12-08T03:26:19.398Z,1
2018-12-08T03:28:19.168Z,0.7
2018-12-08T03:30:19.002Z,1.4
2018-12-08T03:32:18.565Z,1.1
2018-12-08T03:34:19.353Z,0.8
2018-12-08T03:36:18.842Z,1
2018-12-08T03:38:18.602Z,0.7
2018-12-08T03:40:18.957Z,1.6
2018-12-08T03:42:18.734Z,0.7
2018-12-08T03:44:18.504Z,0.5
2018-12-08T03:46:19.064Z,0.5
2018-12-08T03:48:18.826Z,0.5
2018-12-08T03:50:18.589Z,1.6
2018-12-08T03:52:19.286Z,1.1
2018-12-08T03:54:19.061Z,0.8
2018-12-08T03:56:18.658Z,0.9
2018-12-08T03:58:19.423Z,1.1
2018-12-08T04:00:19.174Z,0.7
2018-12-08T04:02:18.967Z,0.8
2018-12-08T04:04:18.773Z,0.6
2018-12-08T04:06:19.003Z,0.6
2018-12-08T04:08:18.774Z,0.6
2018-12-08T04:10:19.078Z,0.6
2018-12-08T04:12:18.840Z,0.8
2018-12-08T04:14:18.613Z,1.1
2018-12-08T04:16:18.686Z,0.8
2018-12-08T04:18:18.559Z,0.8
2018-12-08T04:20:19.335Z,0.9
2018-12-08T04:22:19.100Z,0.8
2018-12-08T04:24:18.860Z,0.7
2018-12-08T04:26:19.301Z,0.7
2018-12-08T04:28:19.079Z,0.7
2018-12-08T04:30:18.857Z,1.7
2018-12-08T04:32:18.671Z,1.2
2018-12-08T04:34:19.477Z,0.3
2018-12-08T04:36:19.165Z,0.7
2018-12-08T04:38:18.967Z,1.3
2018-12-08T04:40:19.226Z,0.6
2018-12-08T04:42:18.902Z,0.8
2018-12-08T04:44:18.658Z,1
2018-12-08T04:46:18.718Z,0.7
2018-12-08T04:48:18.487Z,1
2018-12-08T04:50:19.264Z,0.5
2018-12-08T04:52:19.053Z,1.1
2018-12-08T04:54:18.805Z,0.5
2018-12-08T04:56:18.866Z,0.6
2018-12-08T04:58:18.620Z,0.8
2018-12-08T05:00:19.398Z,1.1
2018-12-08T05:02:19.152Z,0.8
2018-12-08T05:04:18.889Z,0.7
2018-12-08T05:06:19.006Z,0.8
2018-12-08T05:08:18.748Z,1.3
2018-12-08T05:10:19.075Z,1.3
2018-12-08T05:12:18.835Z,0.4
2018-12-08T05:14:18.570Z,1.3
2018-12-08T05:16:19.089Z,0.5
2018-12-08T05:18:18.924Z,0.6
2018-12-08T05:20:18.692Z,0.9
2018-12-08T05:22:19.491Z,1.2
2018-12-08T05:24:19.253Z,0.8
2018-12-08T05:26:18.820Z,0.6
2018-12-08T05:28:18.575Z,0.5
2018-12-08T05:30:19.353Z,0.6
2018-12-08T05:32:19.105Z,1
2018-12-08T05:34:18.851Z,0.5
2018-12-08T05:36:19.367Z,0.2
2018-12-08T05:38:19.137Z,1
2018-12-08T05:40:19.383Z,1.1
2018-12-08T05:42:18.903Z,1
2018-12-08T05:44:18.701Z,0.7
2018-12-08T05:46:18.917Z,0.6
2018-12-08T05:48:18.657Z,0.7
2018-12-08T05:50:19.549Z,1.2
2018-12-08T05:52:19.298Z,0.5
2018-12-08T05:54:19.063Z,0.8
2018-12-08T05:56:19.279Z,1.8
2018-12-08T05:58:19.042Z,1.3
2018-12-08T06:00:18.811Z,0.8
2018-12-08T06:02:18.573Z,0.8
2018-12-08T06:04:19.346Z,0.8
2018-12-08T06:06:19.465Z,0.8
2018-12-08T06:08:19.239Z,0.9
2018-12-08T06:10:19.485Z,1.2
2018-12-08T06:12:19.237Z,0.5
2018-12-08T06:14:18.999Z,0.5
2018-12-08T06:16:19.292Z,0.7
2018-12-08T06:18:19.142Z,0.5
2018-12-08T06:20:18.922Z,0.8
2018-12-08T06:22:18.695Z,0.3
2018-12-08T06:24:19.459Z,0.6
2018-12-08T06:26:19.308Z,0.3
2018-12-08T06:28:19.203Z,0.6
2018-12-08T06:30:19.004Z,0.8
2018-12-08T06:32:18.767Z,0.7
2018-12-08T06:34:18.530Z,0.6
2018-12-08T06:36:18.674Z,0.7
2018-12-08T06:38:19.440Z,0.5
2018-12-08T06:40:18.690Z,0.7
2018-12-08T06:42:19.465Z,0.4
2018-12-08T06:44:19.230Z,0.8
2018-12-08T06:46:19.426Z,1
2018-12-08T06:48:19.206Z,0.5
2018-12-08T06:50:18.990Z,0.9
2018-12-08T06:52:18.740Z,1.3
2018-12-08T06:54:18.517Z,0.8
2018-12-08T06:56:19.121Z,0.7
2018-12-08T06:58:18.936Z,0.6
2018-12-08T07:00:18.714Z,0.6
2018-12-08T07:02:19.482Z,0.7
2018-12-08T07:04:19.245Z,0.8
2018-12-08T07:06:18.813Z,0.9
2018-12-08T07:08:18.622Z,0.7
2018-12-08T07:10:18.922Z,0.8
2018-12-08T07:12:18.715Z,3.5
2018-12-08T07:14:19.518Z,2.3
2018-12-08T07:16:19.149Z,1
2018-12-08T07:18:19.006Z,1.1
2018-12-08T07:20:18.778Z,0.9
2018-12-08T07:22:18.566Z,0.7
2018-12-08T07:24:19.331Z,0.7
2018-12-08T07:26:18.781Z,0.3
2018-12-08T07:28:18.552Z,0.7
2018-12-08T07:30:19.464Z,0.6
2018-12-08T07:32:19.235Z,0.5
2018-12-08T07:34:18.999Z,0.4
2018-12-08T07:36:18.823Z,0.9
2018-12-08T07:38:18.594Z,0.5
2018-12-08T07:40:18.847Z,0.5
2018-12-08T07:42:18.623Z,0.7
2018-12-08T07:44:19.398Z,0.4
2018-12-08T07:46:18.568Z,0.5
2018-12-08T07:48:19.344Z,0.6
2018-12-08T07:50:19.103Z,0.3
2018-12-08T07:52:18.856Z,0.5
2018-12-08T07:54:18.617Z,0.7
2018-12-08T07:56:19.138Z,0.2
2018-12-08T07:58:18.928Z,0.4
2018-12-08T08:00:18.741Z,0.3
2018-12-08T08:02:18.748Z,0.3
2018-12-08T08:04:18.547Z,0.3
2018-12-08T08:06:18.959Z,0.6
2018-12-08T08:08:18.716Z,0.7
2018-12-08T08:10:18.976Z,0.8
2018-12-08T08:12:18.731Z,0.7
2018-12-08T08:14:18.520Z,0.5
2018-12-08T08:16:19.210Z,0.5
2018-12-08T08:18:19.051Z,0.5
2018-12-08T08:20:18.812Z,0.5
2018-12-08T08:22:19.444Z,0.6
2018-12-08T08:24:19.195Z,0.5
2018-12-08T08:26:19.452Z,0.7
2018-12-08T08:28:19.216Z,0.4
2018-12-08T08:30:18.978Z,0.3
2018-12-08T08:32:18.732Z,0.3
2018-12-08T08:34:19.490Z,0.6
2018-12-08T08:36:18.711Z,0.6
2018-12-08T08:38:19.497Z,0.8
2018-12-08T08:40:18.884Z,0.3
2018-12-08T08:42:18.654Z,0.7
2018-12-08T08:44:19.417Z,0.4
2018-12-08T08:46:18.555Z,0.5
2018-12-08T08:48:19.310Z,0.3
2018-12-08T08:50:19.100Z,0.5
2018-12-08T08:52:18.875Z,0.4
2018-12-08T08:54:18.641Z,0.4
2018-12-08T08:56:18.708Z,0.5
2018-12-08T08:58:19.498Z,0.6
2018-12-08T09:00:19.407Z,0.2
2018-12-08T09:02:19.152Z,0.2
2018-12-08T09:04:18.941Z,0.5
2018-12-08T09:06:19.479Z,0.3
2018-12-08T09:08:19.254Z,0.7
2018-12-08T09:10:19.500Z,0.5
2018-12-08T09:12:19.080Z,0.5
2018-12-08T09:14:18.853Z,0.2
2018-12-08T09:16:19.443Z,0.4
2018-12-08T09:18:19.284Z,0.5
2018-12-08T09:20:19.059Z,0.3
2018-12-08T09:22:18.835Z,0.5
2018-12-08T09:24:18.600Z,0.4
2018-12-08T09:26:19.186Z,0.8
2018-12-08T09:28:18.973Z,0.6
2018-12-08T09:30:18.809Z,0.2
2018-12-08T09:32:18.609Z,0.3
2018-12-08T09:34:19.367Z,0.6
2018-12-08T09:36:19.002Z,0.3
2018-12-08T09:38:18.764Z,0.2
2018-12-08T09:40:19.027Z,0.6
2018-12-08T09:42:18.810Z,0.2
2018-12-08T09:44:18.573Z,0.7
2018-12-08T09:46:19.130Z,0.4
2018-12-08T09:48:18.890Z,0.3
2018-12-08T09:50:18.682Z,0.4
2018-12-08T09:52:18.789Z,0.5
2018-12-08T09:54:18.552Z,0.9
2018-12-08T09:56:18.601Z,0.6
2018-12-08T09:58:19.355Z,0.5
2018-12-08T10:00:19.132Z,0.2
2018-12-08T10:02:18.900Z,0.3
2018-12-08T10:04:18.680Z,0.3
2018-12-08T10:06:18.878Z,0.6
2018-12-08T10:08:18.664Z,0.2
2018-12-08T10:10:18.928Z,0.3
2018-12-08T10:12:18.706Z,0.7
2018-12-08T10:14:19.468Z,0.5
2018-12-08T10:16:18.701Z,0.4
2018-12-08T10:18:18.537Z,0.3
2018-12-08T10:20:19.369Z,0.4
2018-12-08T10:22:19.172Z,0.4
2018-12-08T10:24:18.950Z,0.4
2018-12-08T10:26:19.072Z,0.3
2018-12-08T10:28:18.826Z,0.6
2018-12-08T10:30:18.594Z,0.6
2018-12-08T10:32:19.351Z,0.4
2018-12-08T10:34:19.116Z,0.5
2018-12-08T10:36:18.532Z,0.5
2018-12-08T10:38:19.316Z,0.3
2018-12-08T10:40:18.580Z,1
2018-12-08T10:42:19.354Z,2.1
2018-12-08T10:44:19.123Z,0.4
2018-12-08T10:46:18.821Z,0.4
2018-12-08T10:48:18.723Z,0.6
2018-12-08T10:50:18.504Z,0.6
2018-12-08T10:52:19.278Z,0.6
2018-12-08T10:54:19.075Z,0.2
2018-12-08T10:56:19.487Z,0.4
2018-12-08T10:58:19.263Z,0.2
2018-12-08T11:00:19.046Z,0.5
2018-12-08T11:02:18.709Z,0.5
2018-12-08T11:04:19.501Z,0.4
2018-12-08T11:06:18.624Z,0.4
2018-12-08T11:08:19.417Z,0.5
2018-12-08T11:10:18.776Z,0.4
2018-12-08T11:12:18.571Z,0.2
2018-12-08T11:14:19.321Z,0.3
2018-12-08T11:16:18.748Z,0.8
2018-12-08T11:18:18.594Z,0.2
2018-12-08T11:20:19.373Z,0.5
2018-12-08T11:22:19.263Z,0.3
2018-12-08T11:24:19.046Z,0.2
2018-12-08T11:26:19.208Z,0.7
2018-12-08T11:28:18.969Z,0.1
2018-12-08T11:30:18.767Z,0.4
2018-12-08T11:32:19.408Z,0.4
2018-12-08T11:34:19.189Z,0.6
2018-12-08T11:36:18.881Z,0.2
2018-12-08T11:38:18.634Z,0.2
2018-12-08T11:40:18.914Z,0.3
2018-12-08T11:42:18.534Z,0.4
2018-12-08T11:44:19.301Z,0.6
2018-12-08T11:46:18.807Z,0.5
2018-12-08T11:48:18.580Z,0.6
2018-12-08T11:50:19.347Z,0.4
2018-12-08T11:52:19.119Z,0.2
2018-12-08T11:54:18.896Z,0.3
2018-12-08T11:56:18.969Z,0.4
2018-12-08T11:58:18.749Z,0.1
2018-12-08T12:00:18.591Z,0.1
2018-12-08T12:02:19.360Z,0.4
2018-12-08T12:04:19.115Z,0.2
2018-12-08T12:06:18.841Z,0.2
2018-12-08T12:08:18.600Z,0.1
2018-12-08T12:10:18.851Z,0.5
2018-12-08T12:12:18.670Z,0.1
2018-12-08T12:14:19.419Z,0.3
2018-12-08T12:16:18.994Z,0.1
2018-12-08T12:18:18.850Z,0.1
2018-12-08T12:20:18.610Z,0.2
2018-12-08T12:22:19.368Z,0.2
2018-12-08T12:24:19.155Z,0.2
2018-12-08T12:26:18.620Z,0.2
2018-12-08T12:28:19.414Z,0.1
2018-12-08T12:30:19.206Z,0.4
2018-12-08T12:32:18.995Z,0.1
2018-12-08T12:34:18.750Z,0.6
2018-12-08T12:36:18.818Z,0.3
2018-12-08T12:38:18.599Z,0.4
2018-12-08T12:40:18.856Z,0.2
2018-12-08T12:42:18.617Z,0.1
2018-12-08T12:44:19.413Z,0.2
2018-12-08T12:46:18.558Z,0.1
2018-12-08T12:48:19.325Z,0.3
2018-12-08T12:50:19.098Z,0.2
2018-12-08T12:52:18.834Z,0.3
2018-12-08T12:54:18.598Z,0.2
2018-12-08T12:56:18.733Z,0.3
2018-12-08T12:58:18.522Z,0.2
2018-12-08T13:00:19.284Z,0.1
2018-12-08T13:02:19.164Z,0.4
2018-12-08T13:04:18.942Z,0.5
2018-12-08T13:06:19.108Z,0.2
2018-12-08T13:08:18.898Z,0.3
2018-12-08T13:10:19.152Z,0.2
2018-12-08T13:12:18.924Z,0.2
2018-12-08T13:14:18.702Z,0.1
2018-12-08T13:16:18.835Z,0.4
2018-12-08T13:18:18.707Z,0.1
2018-12-08T13:20:19.529Z,0.1
2018-12-08T13:22:19.314Z,0.2
2018-12-08T13:24:19.117Z,0.2
2018-12-08T13:26:18.965Z,0.4
2018-12-08T13:28:18.717Z,0
2018-12-08T13:30:19.502Z,0.3
2018-12-08T13:32:19.288Z,0.1
2018-12-08T13:34:19.069Z,0.1
2018-12-08T13:36:19.405Z,0.4
2018-12-08T13:38:19.181Z,0.3
2018-12-08T13:40:19.461Z,0.2
2018-12-08T13:42:19.250Z,0.3
2018-12-08T13:44:19.013Z,0.2
2018-12-08T13:46:18.743Z,0.3
2018-12-08T13:48:18.513Z,0.2
2018-12-08T13:50:19.280Z,0.2
2018-12-08T13:52:19.060Z,0.3
2018-12-08T13:54:18.848Z,0.4
2018-12-08T13:56:18.998Z,0.4
2018-12-08T13:58:18.761Z,0.2
2018-12-08T14:00:18.576Z,0.4
2018-12-08T14:02:19.115Z,0.4
2018-12-08T14:04:18.896Z,0.3
2018-12-08T14:06:18.975Z,0.2
2018-12-08T14:08:18.756Z,0.2
2018-12-08T14:10:18.986Z,0.4
2018-12-08T14:12:18.763Z,0.5
2018-12-08T14:14:18.532Z,0.2
2018-12-08T14:16:18.914Z,0.3
2018-12-08T14:18:18.769Z,0.2
2018-12-08T14:20:18.533Z,0.5
2018-12-08T14:22:19.320Z,0.4
2018-12-08T14:24:19.113Z,0.3
2018-12-08T14:26:18.665Z,0.2
2018-12-08T14:28:19.463Z,0.2
2018-12-08T14:30:19.283Z,0.2
2018-12-08T14:32:19.060Z,0.1
2018-12-08T14:34:18.826Z,0.4
2018-12-08T14:36:18.769Z,0.3
2018-12-08T14:38:18.569Z,0.3
2018-12-08T14:40:18.851Z,0.6
2018-12-08T14:42:18.645Z,0.3
2018-12-08T14:44:19.416Z,0.4
2018-12-08T14:46:18.639Z,0.3
2018-12-08T14:48:19.415Z,0.1
2018-12-08T14:50:19.201Z,0.2
2018-12-08T14:52:19.369Z,0.1
2018-12-08T14:54:19.148Z,0.3
2018-12-08T14:56:18.551Z,0.3
2018-12-08T14:58:19.319Z,0.5
2018-12-08T15:00:19.114Z,0.4
2018-12-08T15:02:18.892Z,0.2
2018-12-08T15:04:18.665Z,0.3
2018-12-08T15:06:19.313Z,0.3
2018-12-08T15:08:19.083Z,0.1
2018-12-08T15:10:19.348Z,0.3
2018-12-08T15:12:18.989Z,0.1
2018-12-08T15:14:18.780Z,0.4
2018-12-08T15:16:19.013Z,0.3
2018-12-08T15:18:18.880Z,0.1
2018-12-08T15:20:18.672Z,0.3
2018-12-08T15:22:19.456Z,0.3
2018-12-08T15:24:19.256Z,0.3
2018-12-08T15:26:19.169Z,0.3
2018-12-08T15:28:18.913Z,0.3
2018-12-08T15:30:18.680Z,0.2
2018-12-08T15:32:19.452Z,0.1
2018-12-08T15:34:19.232Z,0.2
2018-12-08T15:36:19.359Z,0.2
2018-12-08T15:38:19.141Z,0.2
2018-12-08T15:40:19.489Z,0.1
2018-12-08T15:42:19.245Z,0.1
2018-12-08T15:44:19.065Z,0.1
2018-12-08T15:46:18.746Z,0.3
2018-12-08T15:48:18.514Z,0.1
2018-12-08T15:50:19.329Z,0.1
2018-12-08T15:52:18.968Z,0.1
2018-12-08T15:54:18.748Z,0.1
2018-12-08T15:56:19.172Z,0.2
2018-12-08T15:58:18.932Z,0.5
2018-12-08T16:00:18.760Z,0.2
2018-12-08T16:02:18.518Z,0.3
2018-12-08T16:04:19.284Z,0.2
2018-12-08T16:06:19.083Z,0.2
2018-12-08T16:08:18.900Z,0.1
2018-12-08T16:10:19.167Z,0.2
2018-12-08T16:12:19.254Z,0.4
2018-12-08T16:14:19.018Z,0.2
2018-12-08T16:16:18.644Z,0.1
2018-12-08T16:18:18.508Z,0.1
2018-12-08T16:20:19.306Z,0.2
2018-12-08T16:22:19.074Z,0.1
2018-12-08T16:24:18.847Z,0.1
2018-12-08T16:26:19.005Z,0.3
2018-12-08T16:28:18.818Z,0.2
2018-12-08T16:30:18.612Z,0.2
2018-12-08T16:32:19.379Z,0.1
2018-12-08T16:34:19.150Z,0.3
2018-12-08T16:36:19.446Z,0.1
2018-12-08T16:38:19.245Z,0.3
2018-12-08T16:40:19.517Z,0.2
2018-12-08T16:42:19.270Z,0.1
2018-12-08T16:44:19.025Z,0.2
2018-12-08T16:46:18.773Z,0.2
2018-12-08T16:48:18.543Z,0.1
2018-12-08T16:50:19.327Z,0.5
2018-12-08T16:52:19.040Z,0.1
2018-12-08T16:54:18.801Z,0.1
2018-12-08T16:56:18.720Z,0.2
2018-12-08T16:58:19.502Z,0.2
2018-12-08T17:00:19.297Z,0.3
2018-12-08T17:02:19.085Z,0.2
2018-12-08T17:04:18.832Z,0.3
2018-12-08T17:06:18.503Z,0.2
2018-12-08T17:08:19.276Z,0.3
2018-12-08T17:10:18.561Z,0.4
2018-12-08T17:12:19.328Z,0.2
2018-12-08T17:14:19.159Z,0.2
2018-12-08T17:16:18.899Z,0.2
2018-12-08T17:18:18.758Z,0.2
2018-12-08T17:20:18.529Z,0.1
2018-12-08T17:22:19.277Z,0.1
2018-12-08T17:24:19.034Z,0.1
2018-12-08T17:26:19.274Z,0.2
2018-12-08T17:28:19.048Z,0.1
2018-12-08T17:30:18.821Z,0.2
2018-12-08T17:32:18.555Z,0.3
2018-12-08T17:34:19.310Z,0.1
2018-12-08T17:36:19.389Z,0.2
2018-12-08T17:38:19.152Z,0.3
2018-12-08T17:40:19.428Z,0.2
2018-12-08T17:42:19.216Z,0.2
2018-12-08T17:44:18.989Z,0.4
2018-12-08T17:46:19.403Z,0.5
2018-12-08T17:48:19.158Z,0.2
2018-12-08T17:50:18.940Z,0.2
2018-12-08T17:52:18.722Z,0.2
2018-12-08T17:54:18.509Z,0.3
2018-12-08T17:56:19.135Z,0.3
2018-12-08T17:58:18.896Z,0.1
2018-12-08T18:00:18.699Z,0.5
2018-12-08T18:02:19.486Z,0.3
2018-12-08T18:04:19.278Z,0.2
2018-12-08T18:06:19.045Z,0.6
2018-12-08T18:08:18.796Z,0.2
2018-12-08T18:10:19.021Z,0.2
2018-12-08T18:12:18.815Z,0.5
2018-12-08T18:14:18.605Z,0.2
2018-12-08T18:16:19.118Z,0.4
2018-12-08T18:18:18.968Z,0.4
2018-12-08T18:20:18.754Z,0.4
2018-12-08T18:22:18.532Z,0.3
2018-12-08T18:24:18.783Z,0.4
2018-12-08T18:26:18.984Z,0.3
2018-12-08T18:28:18.772Z,0.4
2018-12-08T18:30:18.635Z,0.6
2018-12-08T18:32:19.364Z,0.3
2018-12-08T18:34:19.151Z,0.6
2018-12-08T18:36:18.992Z,0.2
2018-12-08T18:38:18.750Z,0.2
2018-12-08T18:40:19.137Z,0.4
2018-12-08T18:42:18.913Z,0.2
2018-12-08T18:44:18.681Z,0.3
2018-12-08T18:46:18.805Z,0.4
2018-12-08T18:48:18.578Z,0.4
2018-12-08T18:50:19.361Z,0.6
2018-12-08T18:52:19.169Z,0.3
2018-12-08T18:54:18.949Z,0.3
2018-12-08T18:56:19.103Z,0.4
2018-12-08T18:58:18.880Z,0.3
2018-12-08T19:00:18.658Z,0.8
2018-12-08T19:02:18.884Z,0.4
2018-12-08T19:04:18.652Z,0.3
2018-12-08T19:06:18.720Z,0.2
2018-12-08T19:08:18.502Z,0.2
2018-12-08T19:10:18.750Z,0.4
2018-12-08T19:12:19.388Z,0.2
2018-12-08T19:14:19.145Z,0.4
2018-12-08T19:16:19.252Z,0.3
2018-12-08T19:18:19.113Z,0.6
2018-12-08T19:20:18.953Z,0.7
2018-12-08T19:22:18.726Z,0.7
2018-12-08T19:24:19.587Z,0.2
2018-12-08T19:26:19.251Z,0.6
2018-12-08T19:28:19.029Z,0.5
2018-12-08T19:30:18.796Z,0.5
2018-12-08T19:32:18.543Z,0.4
2018-12-08T19:34:19.313Z,0.4
2018-12-08T19:36:19.508Z,0.5
2018-12-08T19:38:19.300Z,0.2
2018-12-08T19:40:18.564Z,0.4
2018-12-08T19:42:19.316Z,0.3
2018-12-08T19:44:19.091Z,0.4
2018-12-08T19:46:19.312Z,0.4
2018-12-08T19:48:19.070Z,0.2
2018-12-08T19:50:18.864Z,0.5
2018-12-08T19:52:18.667Z,0.3
2018-12-08T19:54:19.442Z,0.7
2018-12-08T19:56:19.096Z,0.4
2018-12-08T19:58:18.871Z,0.2
2018-12-08T20:00:18.661Z,0.9
2018-12-08T20:02:19.453Z,0.2
2018-12-08T20:04:19.237Z,0.3
2018-12-08T20:06:18.882Z,0.3
2018-12-08T20:08:18.660Z,0.3
2018-12-08T20:10:18.942Z,0.6
2018-12-08T20:12:18.744Z,0.7
2018-12-08T20:14:18.537Z,0.4
2018-12-08T20:16:18.679Z,0.6
2018-12-08T20:18:18.523Z,0.4
2018-12-08T20:20:19.283Z,0.7
2018-12-08T20:22:19.041Z,0.9
2018-12-08T20:24:18.838Z,0.6
2018-12-08T20:26:19.397Z,0.4
2018-12-08T20:28:19.164Z,0.7
2018-12-08T20:30:18.996Z,0.7
2018-12-08T20:32:18.778Z,0.4
2018-12-08T20:34:18.571Z,0.4
2018-12-08T20:36:19.159Z,0.4
2018-12-08T20:38:18.935Z,0.4
2018-12-08T20:40:19.177Z,0.6
2018-12-08T20:42:18.940Z,0.4
2018-12-08T20:44:18.703Z,0.6
2018-12-08T20:46:18.791Z,0.6
2018-12-08T20:48:18.554Z,0.5
2018-12-08T20:50:19.333Z,0.6
2018-12-08T20:52:19.105Z,0.8
2018-12-08T20:54:18.969Z,0.4
2018-12-08T20:56:19.175Z,0.8
2018-12-08T20:58:18.944Z,0.7
2018-12-08T21:00:18.714Z,0.8
2018-12-08T21:02:19.487Z,0.5
2018-12-08T21:04:19.261Z,0.6
2018-12-08T21:06:18.868Z,0.8
2018-12-08T21:08:18.647Z,0.5
2018-12-08T21:10:18.900Z,0.7
2018-12-08T21:12:18.538Z,0.5
2018-12-08T21:14:19.307Z,0.3
2018-12-08T21:16:18.790Z,0.5
2018-12-08T21:18:18.645Z,0.8
2018-12-08T21:20:19.454Z,0.5
2018-12-08T21:22:19.220Z,0.4
2018-12-08T21:24:18.998Z,0.5
2018-12-08T21:26:19.102Z,1
2018-12-08T21:28:18.886Z,0.6
2018-12-08T21:30:18.640Z,0.7
2018-12-08T21:32:19.420Z,0.7
2018-12-08T21:34:19.191Z,0.9
2018-12-08T21:36:18.798Z,0.4
2018-12-08T21:38:18.593Z,0.5
2018-12-08T21:40:18.908Z,0.5
2018-12-08T21:42:18.691Z,0.4
2018-12-08T21:44:19.451Z,0.4
2018-12-08T21:46:19.166Z,0.5
2018-12-08T21:48:18.929Z,0.7
2018-12-08T21:50:18.729Z,0.6
2018-12-08T21:52:18.882Z,0.5
2018-12-08T21:54:18.622Z,0.4
2018-12-08T21:56:19.161Z,0.4
2018-12-08T21:58:18.901Z,0.3
2018-12-08T22:00:18.706Z,0.2
2018-12-08T22:02:18.739Z,0.7
2018-12-08T22:04:18.500Z,0.4
2018-12-08T22:06:18.567Z,0.8
2018-12-08T22:08:19.330Z,0.3
2018-12-08T22:10:18.641Z,0.4
2018-12-08T22:12:19.406Z,0.2
2018-12-08T22:14:19.194Z,0.6
2018-12-08T22:16:19.307Z,0.3
2018-12-08T22:18:19.159Z,0.8
2018-12-08T22:20:18.919Z,0.4
2018-12-08T22:22:18.558Z,0.6
2018-12-08T22:24:19.329Z,0.6
2018-12-08T22:26:18.701Z,0.5
2018-12-08T22:28:19.487Z,0.7
2018-12-08T22:30:19.302Z,0.4
2018-12-08T22:32:19.087Z,0.3
2018-12-08T22:34:18.860Z,0.6
2018-12-08T22:36:19.460Z,0.4
2018-12-08T22:38:19.238Z,0.9
2018-12-08T22:40:19.480Z,0.7
2018-12-08T22:42:19.246Z,0.4
2018-12-08T22:44:19.037Z,0.6
2018-12-08T22:46:19.327Z,0.4
2018-12-08T22:48:19.096Z,0.5
2018-12-08T22:50:18.872Z,0.7
2018-12-08T22:52:18.661Z,0.8
2018-12-08T22:54:19.445Z,0.3
2018-12-08T22:56:18.624Z,0.5
2018-12-08T22:58:19.397Z,0.5
2018-12-08T23:00:19.167Z,0.2
2018-12-08T23:02:18.960Z,0.3
2018-12-08T23:04:18.755Z,0.4
2018-12-08T23:06:19.293Z,0.3
2018-12-08T23:08:19.044Z,0.4
2018-12-08T23:10:19.300Z,0.9
2018-12-08T23:12:19.116Z,0.9
2018-12-08T23:14:18.859Z,0.3
2018-12-08T23:16:19.408Z,1.2
2018-12-08T23:18:19.281Z,0.7
2018-12-08T23:20:19.068Z,0.5
2018-12-08T23:22:18.821Z,0.4
2018-12-08T23:24:18.584Z,0.4
2018-12-08T23:26:18.759Z,0.5
2018-12-08T23:28:18.536Z,0.5
2018-12-08T23:30:19.296Z,0.5
2018-12-08T23:32:19.062Z,0.5
2018-12-08T23:34:18.822Z,0.8
2018-12-08T23:36:18.907Z,0.6
2018-12-08T23:38:18.671Z,0.6
2018-12-08T23:40:18.981Z,0.3
2018-12-08T23:42:18.765Z,0.3
2018-12-08T23:44:18.507Z,0.5
2018-12-08T23:46:18.901Z,1.3
2018-12-08T23:48:18.644Z,0.7
2018-12-08T23:50:19.411Z,0.4
2018-12-08T23:52:19.168Z,0.6
2018-12-08T23:54:18.918Z,0.6
2018-12-08T23:56:19.451Z,0.3
2018-12-08T23:58:19.232Z,0.5
